Time;durP1;ratioP1;P1;durP2;ratioP2;P2;SDS_P1;SDS_P2;PMS_P1;PMS_P2;Temp;Humidity;BMP_temperature;BMP_pressure;BME280_temperature;BME280_humidity;BME280_pressure;Samples;Min_cycle;Max_cycle;Signal;HPM_P1;HPM_P2
2022/10/02 00:01:57;;;;;;;1.27;0.40;;;17.40;99.90;;;;;;5076069;28;20032;-68
2022/10/02 00:04:43;;;;;;;1.00;0.30;;;17.60;99.90;;;;;;5074519;28;20025;-68
2022/10/02 00:07:11;;;;;;;1.55;0.50;;;17.80;99.90;;;;;;5076003;28;20385;-68
2022/10/02 00:09:52;;;;;;;1.15;0.30;;;18.30;99.90;;;;;;5075825;28;20108;-72
2022/10/02 00:12:23;;;;;;;2.40;0.40;;;18.50;99.90;;;;;;5075829;28;20029;-65
2022/10/02 00:14:57;;;;;;;2.20;0.40;;;18.90;99.90;;;;;;5075811;28;20476;-64
2022/10/02 00:17:32;;;;;;;2.80;0.30;;;19.00;99.90;;;;;;5074273;28;20035;-65
2022/10/02 00:20:01;;;;;;;2.25;0.50;;;19.40;99.90;;;;;;5074649;28;20021;-66
2022/10/02 00:22:46;;;;;;;2.65;0.63;;;19.30;99.90;;;;;;5074365;28;20020;-65
2022/10/02 00:25:36;;;;;;;3.45;0.52;;;18.40;99.90;;;;;;5074271;28;20025;-65
2022/10/02 00:28:28;;;;;;;2.15;0.82;;;18.00;99.90;;;;;;5075125;28;20116;-66
2022/10/02 00:31:13;;;;;;;2.45;0.50;;;17.40;99.90;;;;;;5075509;28;20453;-67
2022/10/02 00:34:02;;;;;;;3.80;0.80;;;17.10;99.90;;;;;;5075684;28;20384;-66
2022/10/02 00:36:39;;;;;;;1.80;0.30;;;17.00;99.90;;;;;;5075417;28;20028;-68
2022/10/02 00:39:20;;;;;;;2.13;0.60;;;17.30;99.90;;;;;;5074537;28;20027;-68
2022/10/02 00:42:24;;;;;;;2.38;0.47;;;17.70;99.90;;;;;;5075153;28;20069;-68
2022/10/02 00:45:14;;;;;;;1.25;0.40;;;17.60;99.90;;;;;;5075421;28;20369;-68
2022/10/02 00:47:50;;;;;;;1.58;0.50;;;18.10;99.90;;;;;;5075247;28;20021;-68
2022/10/02 00:50:47;;;;;;;1.98;0.50;;;18.20;99.90;;;;;;5074739;28;20414;-67
2022/10/02 00:53:32;;;;;;;3.20;0.70;;;18.80;99.90;;;;;;5075031;28;20023;-67
2022/10/02 00:56:11;;;;;;;2.08;0.38;;;19.20;99.90;;;;;;5075012;28;20028;-67
2022/10/02 00:59:17;;;;;;;2.63;0.70;;;18.90;99.90;;;;;;5075049;28;20042;-68
2022/10/02 01:02:22;;;;;;;2.95;0.40;;;18.50;99.90;;;;;;5074000;28;20413;-68
2022/10/02 01:04:49;;;;;;;1.70;0.45;;;18.30;99.90;;;;;;5045533;28;20064;-68
2022/10/02 01:07:16;;;;;;;1.20;0.43;;;18.10;99.90;;;;;;5073492;28;20094;-67
2022/10/02 01:09:45;;;;;;;1.92;0.40;;;18.30;99.90;;;;;;5073454;28;20073;-68
2022/10/02 01:12:12;;;;;;;1.90;0.43;;;18.90;99.90;;;;;;5074846;28;20025;-69
2022/10/02 01:14:41;;;;;;;2.85;0.88;;;19.30;99.90;;;;;;5074609;28;20035;-68
2022/10/02 01:17:30;;;;;;;2.35;0.77;;;19.30;99.90;;;;;;5074552;28;20031;-68
2022/10/02 01:20:00;;;;;;;3.67;0.73;;;19.30;99.90;;;;;;5074731;28;20035;-68
2022/10/02 01:22:56;;;;;;;3.15;0.63;;;19.10;99.90;;;;;;5073064;28;20029;-68
2022/10/02 01:25:24;;;;;;;1.92;0.60;;;18.70;99.90;;;;;;5074321;28;20062;-69
2022/10/02 01:27:53;;;;;;;3.83;0.50;;;18.40;99.90;;;;;;5073967;28;20073;-69
2022/10/02 01:30:21;;;;;;;2.47;0.57;;;18.10;99.90;;;;;;5071580;28;20017;-68
2022/10/02 01:32:59;;;;;;;2.53;0.70;;;17.80;99.90;;;;;;5071959;28;20027;-68
2022/10/02 01:35:31;;;;;;;2.38;0.60;;;17.70;99.90;;;;;;5072601;28;20025;-68
2022/10/02 01:38:01;;;;;;;4.03;0.50;;;17.70;99.90;;;;;;5073761;28;20029;-69
2022/10/02 01:40:38;;;;;;;1.88;0.65;;;17.60;99.90;;;;;;5072600;28;20384;-70
2022/10/02 01:43:09;;;;;;;3.33;0.50;;;17.30;99.90;;;;;;5073614;28;20055;-69
2022/10/02 01:45:56;;;;;;;1.52;0.40;;;17.80;99.90;;;;;;5073684;28;20100;-69
2022/10/02 01:48:45;;;;;;;2.95;0.50;;;18.50;99.90;;;;;;5074024;28;20035;-69
2022/10/02 01:51:12;;;;;;;2.55;0.43;;;19.20;99.90;;;;;;5074023;28;20013;-68
2022/10/02 01:53:53;;;;;;;2.28;0.45;;;19.20;99.90;;;;;;5073194;28;20021;-68
2022/10/02 01:56:38;;;;;;;0.93;0.30;;;19.40;99.90;;;;;;5074126;28;20473;-68
2022/10/02 01:59:17;;;;;;;0.75;0.30;;;19.50;99.90;;;;;;5074015;28;20024;-67
2022/10/02 02:02:04;;;;;;;1.30;0.28;;;19.60;99.90;;;;;;5072845;28;20025;-68
2022/10/02 02:05:08;;;;;;;1.08;0.20;;;18.90;99.90;;;;;;5073692;28;20024;-67
2022/10/02 02:07:47;;;;;;;2.55;0.43;;;19.20;99.90;;;;;;5073615;28;20023;-68
2022/10/02 02:10:34;;;;;;;0.95;0.40;;;19.00;99.90;;;;;;5073649;28;20021;-68
2022/10/02 02:13:04;;;;;;;2.08;0.28;;;19.00;99.90;;;;;;5073563;28;20033;-68
2022/10/02 02:15:42;;;;;;;0.98;0.20;;;19.30;99.90;;;;;;5073830;28;20021;-67
2022/10/02 02:18:25;;;;;;;1.27;0.20;;;19.70;99.90;;;;;;5073420;28;20056;-67
2022/10/02 02:20:55;;;;;;;1.15;0.30;;;19.50;99.90;;;;;;5073602;28;20528;-69
2022/10/02 02:23:27;;;;;;;1.03;0.47;;;19.60;99.90;;;;;;5073326;28;20028;-68
2022/10/02 02:26:01;;;;;;;2.75;0.30;;;19.20;99.90;;;;;;5073416;28;20053;-70
2022/10/02 02:28:31;;;;;;;0.77;0.30;;;18.90;99.90;;;;;;5073302;28;20040;-68
2022/10/02 02:31:00;;;;;;;1.30;0.52;;;19.50;99.90;;;;;;5072843;28;20435;-68
2022/10/02 02:33:31;;;;;;;1.95;0.35;;;20.20;99.90;;;;;;5071743;28;20411;-69
2022/10/02 02:36:04;;;;;;;1.17;0.30;;;20.00;99.90;;;;;;5071365;28;20101;-69
2022/10/02 02:38:50;;;;;;;1.08;0.30;;;19.90;99.90;;;;;;5071473;28;20461;-68
2022/10/02 02:41:24;;;;;;;0.77;0.30;;;20.00;99.90;;;;;;5069269;28;20063;-69
2022/10/02 02:43:58;;;;;;;3.60;0.85;;;20.30;99.90;;;;;;5070123;28;20052;-68
2022/10/02 02:47:02;;;;;;;1.70;0.60;;;20.20;99.90;;;;;;5070780;28;20024;-68
2022/10/02 02:49:26;;;;;;;1.75;0.43;;;20.40;99.90;;;;;;5070196;28;20434;-69
2022/10/02 02:51:56;;;;;;;1.95;0.60;;;19.70;99.90;;;;;;5072143;28;20024;-67
2022/10/02 02:54:41;;;;;;;3.28;0.60;;;19.30;99.90;;;;;;5072059;28;20366;-68
2022/10/02 02:57:11;;;;;;;1.15;0.30;;;19.00;99.90;;;;;;5071661;28;20031;-68
2022/10/02 02:59:41;;;;;;;1.83;0.30;;;19.10;99.90;;;;;;5072778;28;20370;-72
2022/10/02 03:02:09;;;;;;;1.58;0.50;;;19.70;99.90;;;;;;5073014;28;20146;-70
2022/10/02 03:04:36;;;;;;;1.33;0.28;;;19.30;99.90;;;;;;5069940;28;20531;-70
2022/10/02 03:07:05;;;;;;;2.95;0.22;;;19.10;99.90;;;;;;5071219;28;20048;-71
2022/10/02 03:09:33;;;;;;;3.83;0.50;;;19.10;99.90;;;;;;5071384;28;20023;-69
2022/10/02 03:12:21;;;;;;;2.67;0.40;;;18.80;99.90;;;;;;5072250;28;20017;-70
2022/10/02 03:15:20;;;;;;;2.85;0.30;;;18.30;99.90;;;;;;5074484;28;20503;-70
2022/10/02 03:18:30;;;;;;;1.63;0.40;;;18.00;99.90;;;;;;5075924;28;20039;-70
2022/10/02 03:21:09;;;;;;;3.22;0.60;;;18.00;99.90;;;;;;5063615;28;20064;-70
2022/10/02 03:24:21;;;;;;;2.42;0.40;;;18.10;99.90;;;;;;5076982;28;20032;-71
2022/10/02 03:27:02;;;;;;;2.25;0.30;;;18.30;99.90;;;;;;5017332;28;20029;-70
2022/10/02 03:29:46;;;;;;;3.05;0.30;;;18.10;99.90;;;;;;5071524;28;20032;-70
2022/10/02 03:32:16;;;;;;;3.25;0.35;;;18.00;99.90;;;;;;5075425;28;20507;-70
2022/10/02 03:34:44;;;;;;;2.47;0.35;;;18.00;99.90;;;;;;5074933;28;20024;-71
2022/10/02 03:37:12;;;;;;;2.15;0.30;;;17.80;99.90;;;;;;5074537;28;20056;-71
2022/10/02 03:39:45;;;;;;;2.38;0.30;;;17.80;99.90;;;;;;5073111;28;20036;-74
2022/10/02 03:42:14;;;;;;;0.95;0.15;;;17.50;99.90;;;;;;5073339;28;20024;-70
2022/10/02 03:44:42;;;;;;;2.30;0.40;;;17.90;99.90;;;;;;5074393;28;20120;-71
2022/10/02 03:47:10;;;;;;;1.45;0.30;;;18.40;99.90;;;;;;5074470;28;20036;-71
2022/10/02 03:49:37;;;;;;;3.13;0.60;;;18.80;99.90;;;;;;5075045;28;20037;-70
2022/10/02 03:52:04;;;;;;;1.08;0.20;;;19.10;99.90;;;;;;5076351;28;20043;-71
2022/10/02 03:54:34;;;;;;;2.13;0.22;;;19.40;99.90;;;;;;5074755;28;20483;-72
2022/10/02 03:57:07;;;;;;;1.10;0.38;;;19.20;99.90;;;;;;5074865;28;20384;-72
2022/10/02 03:59:57;;;;;;;2.63;0.40;;;19.10;99.90;;;;;;5076017;28;20028;-70
2022/10/02 04:02:46;;;;;;;0.90;0.20;;;19.30;99.90;;;;;;5074586;28;20036;-71
2022/10/02 04:05:41;;;;;;;2.42;0.63;;;19.40;99.90;;;;;;5074647;28;20423;-72
2022/10/02 04:08:17;;;;;;;1.70;0.35;;;19.50;99.90;;;;;;5074721;28;20025;-72
2022/10/02 04:10:44;;;;;;;2.30;0.30;;;19.60;99.90;;;;;;5075893;28;20047;-72
2022/10/02 04:13:28;;;;;;;0.75;0.10;;;19.60;99.90;;;;;;5076202;28;20029;-71
2022/10/02 04:16:06;;;;;;;2.50;0.20;;;19.50;99.90;;;;;;5075854;28;20020;-72
2022/10/02 04:18:58;;;;;;;1.67;0.20;;;19.30;99.90;;;;;;5076396;28;20423;-70
2022/10/02 04:21:43;;;;;;;1.23;0.10;;;19.30;99.90;;;;;;5075700;28;20028;-71
2022/10/02 04:24:31;;;;;;;1.00;0.20;;;19.30;99.90;;;;;;5074554;28;20091;-71
2022/10/02 04:27:34;;;;;;;1.00;0.30;;;19.30;99.90;;;;;;5074189;28;20017;-72
2022/10/02 04:30:18;;;;;;;0.90;0.20;;;19.50;99.90;;;;;;5075654;28;20052;-72
2022/10/02 04:32:46;;;;;;;0.43;0.10;;;19.20;99.90;;;;;;5074249;28;20025;-72
2022/10/02 04:35:27;;;;;;;0.50;0.20;;;19.00;99.90;;;;;;5075421;28;20099;-71
2022/10/02 04:38:06;;;;;;;2.05;0.30;;;19.40;99.90;;;;;;5075516;28;20024;-72
2022/10/02 04:40:40;;;;;;;1.00;0.20;;;19.70;99.90;;;;;;5075731;28;20040;-74
2022/10/02 04:43:23;;;;;;;0.65;0.20;;;19.80;99.90;;;;;;5075356;28;20054;-71
2022/10/02 04:46:19;;;;;;;1.90;0.17;;;19.40;99.90;;;;;;5075627;28;20024;-72
2022/10/02 04:49:16;;;;;;;1.00;0.22;;;19.50;99.90;;;;;;5050889;28;20059;-71
2022/10/02 04:51:56;;;;;;;0.55;0.10;;;19.40;99.90;;;;;;5073871;28;20028;-71
2022/10/02 04:54:23;;;;;;;1.75;0.17;;;19.30;99.90;;;;;;5075493;28;20016;-71
2022/10/02 04:57:22;;;;;;;0.90;0.20;;;19.40;99.90;;;;;;5075268;28;20025;-71
2022/10/02 04:59:49;;;;;;;1.23;0.20;;;19.30;99.90;;;;;;5053411;28;20059;-71
2022/10/02 05:02:47;;;;;;;1.42;0.20;;;19.50;99.90;;;;;;5074838;28;20032;-72
2022/10/02 05:05:38;;;;;;;1.75;0.20;;;19.80;99.90;;;;;;5074880;28;20024;-71
2022/10/02 05:08:37;;;;;;;3.63;0.65;;;20.00;99.90;;;;;;5074982;28;20472;-71
2022/10/02 05:11:27;;;;;;;0.52;0.20;;;19.90;99.90;;;;;;5074826;28;20017;-71
2022/10/02 05:14:10;;;;;;;1.13;0.40;;;20.00;99.90;;;;;;5074812;28;20388;-72
2022/10/02 05:17:12;;;;;;;1.50;0.20;;;19.90;99.90;;;;;;5074616;28;20025;-71
2022/10/02 05:19:59;;;;;;;1.40;0.35;;;19.60;99.90;;;;;;5032670;28;20025;-71
2022/10/02 05:22:51;;;;;;;3.08;0.40;;;19.60;99.90;;;;;;5071663;28;20075;-71
2022/10/02 05:25:42;;;;;;;2.00;0.20;;;19.30;99.90;;;;;;5074437;28;20056;-72
2022/10/02 05:28:37;;;;;;;0.52;0.20;;;19.50;99.90;;;;;;5073090;28;20054;-73
2022/10/02 05:31:13;;;;;;;1.33;0.30;;;19.40;99.90;;;;;;5074548;28;20028;-73
2022/10/02 05:34:10;;;;;;;1.38;0.20;;;19.20;99.90;;;;;;5072785;28;20025;-71
2022/10/02 05:37:01;;;;;;;1.38;0.30;;;19.00;99.90;;;;;;5072768;28;20020;-72
2022/10/02 05:39:36;;;;;;;0.75;0.20;;;18.90;99.90;;;;;;5072913;28;20028;-72
2022/10/02 05:42:21;;;;;;;0.80;0.25;;;19.10;99.90;;;;;;5074448;28;20135;-72
2022/10/02 05:45:00;;;;;;;0.47;0.20;;;18.80;99.90;;;;;;5072718;28;20040;-71
2022/10/02 05:47:34;;;;;;;0.68;0.20;;;18.70;99.90;;;;;;5072610;28;20020;-72
2022/10/02 05:50:04;;;;;;;2.50;0.22;;;18.30;99.90;;;;;;5072801;28;20423;-72
2022/10/02 05:53:00;;;;;;;1.42;0.20;;;18.20;99.90;;;;;;5072544;28;20017;-72
2022/10/02 05:55:59;;;;;;;1.73;0.30;;;18.50;99.90;;;;;;5072690;28;20039;-71
2022/10/02 05:58:48;;;;;;;1.77;0.20;;;18.40;99.90;;;;;;5072486;28;20033;-71
2022/10/02 06:01:23;;;;;;;1.25;0.20;;;18.50;99.90;;;;;;5074060;28;20032;-72
2022/10/02 06:03:55;;;;;;;1.52;0.35;;;18.10;99.90;;;;;;5072465;28;20097;-72
2022/10/02 06:06:39;;;;;;;2.50;0.98;;;17.90;99.90;;;;;;5072403;28;20028;-72
2022/10/02 06:09:16;;;;;;;1.13;0.30;;;18.10;99.90;;;;;;5073613;28;20017;-71
2022/10/02 06:11:58;;;;;;;1.30;0.40;;;18.40;99.90;;;;;;5072276;28;20063;-72
2022/10/02 06:14:34;;;;;;;1.55;0.82;;;18.50;99.90;;;;;;5073511;28;20029;-71
2022/10/02 06:17:22;;;;;;;2.67;0.50;;;18.60;99.90;;;;;;5073723;28;20024;-72
2022/10/02 06:20:14;;;;;;;2.83;0.40;;;18.60;99.90;;;;;;5073506;28;20029;-72
2022/10/02 06:22:50;;;;;;;0.93;0.43;;;18.40;99.90;;;;;;5072072;28;20059;-73
2022/10/02 06:25:27;;;;;;;2.63;0.20;;;18.50;99.90;;;;;;5071953;28;20035;-72
2022/10/02 06:28:00;;;;;;;1.63;0.32;;;18.50;99.90;;;;;;5072003;28;20012;-72
2022/10/02 06:30:31;;;;;;;3.00;0.60;;;18.50;99.90;;;;;;5072716;28;20020;-72
2022/10/02 06:33:19;;;;;;;1.35;0.40;;;18.80;99.90;;;;;;5073282;28;20093;-73
2022/10/02 06:36:33;;;;;;;2.70;0.63;;;18.70;99.90;;;;;;5071911;28;20032;-72
2022/10/02 06:39:25;;;;;;;1.27;0.40;;;18.70;99.90;;;;;;5011560;28;20573;-72
2022/10/02 06:41:59;;;;;;;1.13;0.28;;;18.80;99.90;;;;;;5073316;28;20025;-72
2022/10/02 06:44:40;;;;;;;0.75;0.38;;;18.80;99.90;;;;;;5072761;28;20043;-71
2022/10/02 06:47:33;;;;;;;2.17;0.50;;;18.80;99.90;;;;;;5071932;28;20391;-72
2022/10/02 06:50:01;;;;;;;1.15;0.35;;;19.10;99.90;;;;;;5073558;28;20369;-72
2022/10/02 06:52:53;;;;;;;4.03;0.40;;;19.10;99.90;;;;;;5072978;28;20063;-73
2022/10/02 06:55:34;;;;;;;1.55;0.10;;;19.40;99.90;;;;;;5071331;28;20463;-73
2022/10/02 06:58:14;;;;;;;;;;;19.50;99.90;;;;;;5073402;28;20358;-73
2022/10/02 07:00:48;;;;;;;;;;;19.60;99.90;;;;;;5073483;28;19969;-72
2022/10/02 07:03:18;;;;;;;2.22;0.30;;;19.40;99.90;;;;;;5072989;28;19911;-72
2022/10/02 07:06:20;;;;;;;1.27;0.45;;;18.90;99.90;;;;;;5071437;28;20036;-73
2022/10/02 07:09:21;;;;;;;1.65;0.50;;;18.60;99.90;;;;;;5073221;28;20017;-72
2022/10/02 07:12:09;;;;;;;4.25;1.27;;;18.00;99.90;;;;;;5073158;28;20113;-73
2022/10/02 07:14:40;;;;;;;2.55;0.70;;;17.50;99.90;;;;;;5071410;28;20048;-73
2022/10/02 07:17:13;;;;;;;2.00;0.47;;;17.10;99.90;;;;;;5070510;28;20496;-72
2022/10/02 07:20:17;;;;;;;1.48;0.50;;;17.00;99.90;;;;;;5072499;28;20476;-72
2022/10/02 07:23:05;;;;;;;1.58;0.57;;;16.60;99.90;;;;;;5071491;28;20028;-73
2022/10/02 07:26:14;;;;;;;1.20;0.40;;;16.30;99.90;;;;;;5071249;28;20024;-73
2022/10/02 07:28:56;;;;;;;3.30;0.77;;;16.00;99.90;;;;;;5072991;28;20027;-73
2022/10/02 07:31:35;;;;;;;2.00;0.50;;;15.90;99.90;;;;;;5072826;28;20578;-73
2022/10/02 07:34:35;;;;;;;2.40;0.47;;;15.80;99.90;;;;;;5071394;28;20024;-72
2022/10/02 07:37:16;;;;;;;0.70;0.45;;;15.60;99.90;;;;;;5071305;28;20021;-74
2022/10/02 07:40:09;;;;;;;1.45;0.60;;;15.40;99.90;;;;;;5071285;28;20392;-72
2022/10/02 07:42:40;;;;;;;3.50;1.73;;;15.30;99.90;;;;;;5072495;28;20041;-73
2022/10/02 07:45:24;;;;;;;4.18;2.20;;;15.30;99.90;;;;;;5072558;28;20047;-73
2022/10/02 07:48:18;;;;;;;5.03;4.40;;;15.10;99.90;;;;;;5072315;28;20028;-73
2022/10/02 07:50:59;;;;;;;3.97;3.28;;;14.90;99.90;;;;;;5069740;28;20387;-73
2022/10/02 07:53:29;;;;;;;5.50;2.80;;;14.80;99.90;;;;;;5071212;28;20021;-73
2022/10/02 07:55:56;;;;;;;;;;;14.80;99.90;;;;;;5071386;28;20059;-73
2022/10/02 07:58:48;;;;;;;7.20;5.43;;;14.70;99.90;;;;;;5073316;28;20404;-74
2022/10/02 08:01:24;;;;;;;8.52;5.03;;;14.60;99.90;;;;;;5075716;28;20016;-72
2022/10/02 08:04:14;;;;;;;4.22;2.88;;;14.50;99.90;;;;;;5076679;28;20052;-73
2022/10/02 08:06:43;;;;;;;3.97;2.73;;;14.40;99.90;;;;;;5075585;28;20492;-73
2022/10/02 08:09:30;;;;;;;5.05;3.90;;;14.30;99.90;;;;;;5074687;28;20492;-74
2022/10/02 08:12:25;;;;;;;6.78;4.05;;;14.20;99.90;;;;;;5075869;28;20025;-73
2022/10/02 08:14:54;;;;;;;6.88;4.60;;;14.20;99.90;;;;;;5047192;28;20085;-73
2022/10/02 08:17:37;;;;;;;8.38;5.53;;;14.10;99.90;;;;;;5073109;28;20020;-73
2022/10/02 08:20:43;;;;;;;5.22;3.72;;;14.10;99.90;;;;;;5074951;28;20016;-73
2022/10/02 08:23:21;;;;;;;7.22;3.83;;;14.00;99.90;;;;;;5075862;28;20028;-74
2022/10/02 08:25:57;;;;;;;5.63;3.88;;;13.90;99.90;;;;;;5075961;28;20422;-74
2022/10/02 08:29:04;;;;;;;5.88;4.05;;;13.90;99.90;;;;;;5075586;28;20104;-73
2022/10/02 08:31:34;;;;;;;5.85;3.80;;;13.80;99.90;;;;;;5066945;28;20037;-74
2022/10/02 08:34:16;;;;;;;4.65;3.58;;;13.80;99.90;;;;;;5075634;28;20506;-73
2022/10/02 08:37:28;;;;;;;7.50;4.10;;;13.70;99.90;;;;;;5075655;28;20082;-75
2022/10/02 08:40:32;;;;;;;5.20;2.40;;;13.60;99.90;;;;;;5071154;28;20086;-74
2022/10/02 08:43:34;;;;;;;2.92;0.85;;;13.60;99.90;;;;;;5073973;28;20055;-74
2022/10/02 08:46:13;;;;;;;1.25;0.80;;;13.60;99.90;;;;;;5075434;28;20046;-74
2022/10/02 08:49:02;;;;;;;2.58;1.30;;;13.60;99.90;;;;;;5075718;28;20191;-74
2022/10/02 08:51:38;;;;;;;10.95;8.52;;;13.50;99.90;;;;;;5075636;28;20039;-74
2022/10/02 08:54:35;;;;;;;3.35;1.92;;;13.50;99.90;;;;;;5074946;28;20027;-73
2022/10/02 08:57:11;;;;;;;3.38;1.80;;;13.40;99.90;;;;;;5074862;28;20495;-73
2022/10/02 08:59:44;;;;;;;4.65;1.70;;;13.40;99.90;;;;;;5075371;28;20020;-74
2022/10/02 09:02:27;;;;;;;3.50;2.35;;;13.30;99.90;;;;;;5075136;28;20028;-74
2022/10/02 09:05:32;;;;;;;3.15;1.48;;;13.30;99.90;;;;;;5073613;28;20102;-74
2022/10/02 09:08:18;;;;;;;2.83;1.50;;;13.20;99.90;;;;;;5075510;28;20070;-73
2022/10/02 09:10:52;;;;;;;1.30;0.93;;;13.20;99.90;;;;;;5073134;28;20477;-74
2022/10/02 09:13:22;;;;;;;1.33;0.95;;;13.10;99.90;;;;;;5074879;28;20027;-74
2022/10/02 09:16:18;;;;;;;3.22;1.20;;;13.10;99.90;;;;;;5075297;28;20423;-74
2022/10/02 09:18:59;;;;;;;3.38;1.55;;;13.00;99.90;;;;;;5074792;28;20419;-73
2022/10/02 09:21:40;;;;;;;4.00;1.45;;;12.90;99.90;;;;;;5075363;28;20055;-75
2022/10/02 09:24:42;;;;;;;3.17;1.70;;;12.80;99.90;;;;;;5074599;28;20097;-74
2022/10/02 09:27:36;;;;;;;3.70;1.42;;;12.70;99.90;;;;;;5074465;28;20439;-74
2022/10/02 09:30:26;;;;;;;2.60;1.40;;;12.70;99.90;;;;;;5073228;28;20025;-74
2022/10/02 09:33:14;;;;;;;3.33;1.50;;;12.60;99.90;;;;;;5074697;28;20012;-73
2022/10/02 09:35:57;;;;;;;2.63;1.40;;;12.50;99.90;;;;;;5074719;28;20357;-74
2022/10/02 09:38:32;;;;;;;3.38;1.48;;;12.50;99.90;;;;;;5074494;28;20020;-74
2022/10/02 09:41:15;;;;;;;2.53;1.40;;;12.40;99.90;;;;;;5073239;28;20020;-73
2022/10/02 09:44:33;;;;;;;2.80;1.70;;;12.50;99.90;;;;;;5072231;28;20044;-73
2022/10/02 09:47:17;;;;;;;2.50;1.48;;;12.40;99.90;;;;;;4995945;28;20034;-74
2022/10/02 09:50:12;;;;;;;5.18;1.70;;;12.40;99.90;;;;;;4996513;28;20104;-74
2022/10/02 09:53:06;;;;;;;4.20;1.90;;;12.40;99.90;;;;;;5061238;28;20040;-73
2022/10/02 09:56:03;;;;;;;4.78;1.60;;;12.30;99.90;;;;;;5071943;28;20027;-74
2022/10/02 09:59:07;;;;;;;4.82;1.70;;;12.30;99.90;;;;;;5073758;28;20376;-73
2022/10/02 10:01:44;;;;;;;4.80;2.10;;;12.20;99.90;;;;;;5074084;28;20413;-75
2022/10/02 10:04:49;;;;;;;3.53;2.13;;;12.20;99.90;;;;;;5073573;28;20024;-75
2022/10/02 10:07:52;;;;;;;2.95;1.92;;;12.10;99.90;;;;;;5058719;28;20066;-74
2022/10/02 10:10:28;;;;;;;3.85;2.13;;;12.10;99.90;;;;;;5072484;28;20035;-75
2022/10/02 10:13:16;;;;;;;3.85;2.30;;;12.10;99.90;;;;;;5071414;28;20028;-74
2022/10/02 10:15:43;;;;;;;5.07;2.28;;;12.10;99.90;;;;;;5073322;28;20021;-75
2022/10/02 10:18:46;;;;;;;4.22;1.90;;;12.00;99.90;;;;;;5073619;28;20504;-75
2022/10/02 10:21:50;;;;;;;3.40;2.08;;;12.10;99.90;;;;;;5072189;28;20047;-74
2022/10/02 10:24:36;;;;;;;10.13;2.58;;;12.00;99.90;;;;;;5072286;28;20028;-75
2022/10/02 10:27:41;;;;;;;3.85;2.33;;;12.00;99.90;;;;;;5072172;28;20032;-74
2022/10/02 10:30:21;;;;;;;4.07;2.00;;;11.90;99.90;;;;;;5072062;28;20025;-74
2022/10/02 10:33:01;;;;;;;3.58;2.10;;;12.00;99.90;;;;;;5072171;28;20017;-74
2022/10/02 10:35:46;;;;;;;4.60;1.98;;;12.00;99.90;;;;;;5073600;28;20062;-74
2022/10/02 10:38:34;;;;;;;4.53;2.03;;;12.00;99.90;;;;;;5073567;28;20025;-75
2022/10/02 10:41:31;;;;;;;4.65;2.20;;;12.10;99.90;;;;;;5073505;28;20074;-75
2022/10/02 10:44:18;;;;;;;2.95;1.90;;;12.10;99.90;;;;;;5073118;28;20048;-75
2022/10/02 10:47:17;;;;;;;3.55;1.88;;;12.10;99.90;;;;;;5071993;28;20025;-74
2022/10/02 10:50:19;;;;;;;2.83;1.58;;;12.00;99.90;;;;;;5070708;28;20426;-74
2022/10/02 10:53:03;;;;;;;3.90;1.90;;;12.00;99.90;;;;;;5073175;28;20077;-74
2022/10/02 10:55:45;;;;;;;3.05;1.85;;;12.00;99.90;;;;;;5073420;28;20362;-75
2022/10/02 10:58:42;;;;;;;2.95;1.70;;;11.90;99.90;;;;;;5073192;28;20110;-75
2022/10/02 11:01:35;;;;;;;2.55;1.75;;;12.00;99.90;;;;;;5072956;28;20049;-74
2022/10/02 11:04:37;;;;;;;2.90;1.58;;;12.00;99.90;;;;;;5071693;28;20473;-74
2022/10/02 11:07:19;;;;;;;3.10;1.95;;;11.90;99.90;;;;;;5073272;28;20472;-75
2022/10/02 11:10:19;;;;;;;4.18;2.33;;;11.90;99.90;;;;;;5071838;28;20392;-74
2022/10/02 11:12:52;;;;;;;3.17;1.73;;;11.90;99.90;;;;;;5069899;28;20039;-73
2022/10/02 11:15:28;;;;;;;3.72;1.83;;;11.80;99.90;;;;;;5071519;28;20561;-73
2022/10/02 11:18:08;;;;;;;5.15;2.08;;;11.80;99.90;;;;;;5071630;28;20032;-74
2022/10/02 11:20:57;;;;;;;3.80;2.15;;;11.70;99.90;;;;;;5071555;28;20510;-73
2022/10/02 11:23:45;;;;;;;4.38;2.65;;;11.60;99.90;;;;;;5071582;28;20058;-74
2022/10/02 11:26:48;;;;;;;3.78;2.70;;;11.50;99.90;;;;;;5071320;28;20016;-74
2022/10/02 11:29:29;;;;;;;5.68;3.08;;;11.50;99.90;;;;;;5071600;28;20029;-75
2022/10/02 11:32:00;;;;;;;5.45;2.50;;;11.50;99.90;;;;;;5071445;28;20100;-74
2022/10/02 11:34:45;;;;;;;4.50;3.08;;;11.50;99.90;;;;;;5075978;28;20052;-74
2022/10/02 11:38:03;;;;;;;6.13;3.13;;;11.50;99.90;;;;;;5075313;28;20162;-74
2022/10/02 11:40:55;;;;;;;4.65;2.85;;;11.50;99.90;;;;;;5042910;28;20430;-74
2022/10/02 11:43:44;;;;;;;4.13;2.58;;;11.50;99.90;;;;;;5076301;28;20045;-74
2022/10/02 11:46:23;;;;;;;5.28;2.90;;;11.50;99.90;;;;;;5075145;28;20036;-74
2022/10/02 11:49:25;;;;;;;3.58;2.50;;;11.50;99.90;;;;;;5076747;28;20020;-74
2022/10/02 11:52:22;;;;;;;5.72;3.25;;;11.50;99.90;;;;;;5076536;28;20012;-74
2022/10/02 11:55:10;;;;;;;3.90;2.28;;;11.50;99.90;;;;;;5076310;28;20025;-73
2022/10/02 11:57:59;;;;;;;5.93;2.45;;;11.40;99.90;;;;;;5076265;28;20066;-74
2022/10/02 12:00:38;;;;;;;4.03;2.60;;;11.40;99.90;;;;;;5074944;28;20028;-73
2022/10/02 12:03:17;;;;;;;4.55;3.00;;;11.40;99.90;;;;;;5076824;28;20375;-73
2022/10/02 12:06:16;;;;;;;5.25;2.65;;;11.30;99.90;;;;;;5076650;28;20031;-74
2022/10/02 12:09:06;;;;;;;5.05;2.50;;;11.30;99.90;;;;;;5075637;28;20021;-73
2022/10/02 12:11:40;;;;;;;5.50;2.97;;;11.30;99.90;;;;;;5076386;28;20381;-73
2022/10/02 12:14:41;;;;;;;3.92;2.83;;;11.30;99.90;;;;;;5076087;28;20021;-74
2022/10/02 12:17:26;;;;;;;4.00;2.67;;;11.30;99.90;;;;;;5076014;28;20029;-74
2022/10/02 12:29:40;;;;;;;4.47;2.72;;;11.10;99.90;;;;;;5075841;28;20537;-73
2022/10/02 12:32:26;;;;;;;4.18;2.28;;;11.10;99.90;;;;;;5074541;28;20427;-74
2022/10/02 12:35:15;;;;;;;4.28;2.58;;;11.00;99.90;;;;;;5074287;28;20120;-74
2022/10/02 12:38:18;;;;;;;4.05;2.65;;;11.00;99.90;;;;;;5074334;28;20070;-73
2022/10/02 12:41:13;;;;;;;4.18;2.67;;;10.90;99.90;;;;;;5075286;28;20032;-73
2022/10/02 12:44:15;;;;;;;4.38;2.83;;;10.90;99.90;;;;;;5075513;28;20500;-74
2022/10/02 12:46:58;;;;;;;4.55;2.90;;;10.90;99.90;;;;;;5074838;28;20028;-73
2022/10/02 12:50:03;;;;;;;6.03;2.60;;;10.90;99.90;;;;;;5074096;28;20048;-74
2022/10/02 12:52:52;;;;;;;5.03;3.15;;;10.80;99.90;;;;;;5067710;28;20438;-73
2022/10/02 12:55:37;;;;;;;4.60;3.17;;;10.80;99.90;;;;;;5075478;28;20029;-74
2022/10/02 12:58:10;;;;;;;5.60;3.13;;;10.80;99.90;;;;;;5072509;28;20518;-74
2022/10/02 13:01:19;;;;;;;6.25;3.25;;;10.80;99.90;;;;;;5075163;28;20094;-73
2022/10/02 13:03:46;;;;;;;4.28;3.13;;;10.70;99.90;;;;;;5075258;28;20066;-74
2022/10/02 13:06:19;;;;;;;4.00;3.35;;;10.70;99.90;;;;;;5073754;28;20031;-74
2022/10/02 13:09:28;;;;;;;3.72;2.92;;;10.60;99.90;;;;;;5073622;28;20028;-74
2022/10/02 13:12:13;;;;;;;5.47;2.55;;;10.70;99.90;;;;;;5073450;28;20029;-73
2022/10/02 13:15:09;;;;;;;3.60;2.72;;;10.60;99.90;;;;;;5073674;28;20024;-73
2022/10/02 13:18:05;;;;;;;5.75;2.75;;;10.60;99.90;;;;;;5074858;28;20031;-73
2022/10/02 13:20:41;;;;;;;4.93;2.47;;;10.60;99.90;;;;;;5075059;28;20078;-74
2022/10/02 13:23:15;;;;;;;5.82;2.65;;;10.60;99.90;;;;;;5074813;28;20472;-74
2022/10/02 13:26:12;;;;;;;3.53;2.53;;;10.60;99.90;;;;;;5073387;28;20046;-74
2022/10/02 13:29:10;;;;;;;3.65;2.55;;;10.70;99.90;;;;;;5074694;28;20117;-73
2022/10/02 13:32:09;;;;;;;4.90;2.38;;;10.70;99.90;;;;;;5073266;28;20024;-73
2022/10/02 13:35:07;;;;;;;4.35;2.40;;;10.60;99.90;;;;;;5062798;28;20028;-74
2022/10/02 13:37:54;;;;;;;2.90;2.10;;;10.60;99.90;;;;;;5074547;28;20096;-74
2022/10/02 13:40:53;;;;;;;4.00;2.50;;;10.60;99.90;;;;;;5073137;28;20027;-73
2022/10/02 13:44:03;;;;;;;3.58;2.30;;;10.60;99.90;;;;;;5041250;28;20039;-73
2022/10/02 13:46:50;;;;;;;7.60;3.15;;;10.70;99.90;;;;;;5074153;28;20559;-75
2022/10/02 13:49:43;;;;;;;2.78;1.83;;;10.70;99.90;;;;;;5074504;28;20051;-73
2022/10/02 13:52:50;;;;;;;3.88;2.33;;;10.60;99.90;;;;;;5072925;28;20035;-74
2022/10/02 13:55:50;;;;;;;3.63;2.42;;;10.70;99.90;;;;;;5073296;28;20025;-73
2022/10/02 13:58:37;;;;;;;4.00;2.40;;;10.70;99.90;;;;;;5065212;28;20400;-73
2022/10/02 14:01:13;;;;;;;4.38;2.38;;;10.80;99.90;;;;;;5074109;28;20052;-73
2022/10/02 14:04:28;;;;;;;3.80;2.15;;;10.80;99.90;;;;;;5074099;28;20104;-73
2022/10/02 14:07:07;;;;;;;4.40;2.30;;;10.80;99.90;;;;;;5015489;28;20086;-74
2022/10/02 14:10:11;;;;;;;6.05;2.20;;;10.80;99.90;;;;;;5032164;28;20517;-73
2022/10/02 14:12:59;;;;;;;5.47;2.50;;;10.80;99.90;;;;;;5066224;28;20033;-74
2022/10/02 14:15:31;;;;;;;5.72;2.67;;;10.80;99.90;;;;;;5074258;28;20047;-73
2022/10/02 14:18:17;;;;;;;3.47;2.50;;;10.70;99.90;;;;;;5072328;28;20111;-74
2022/10/02 14:21:01;;;;;;;5.30;3.08;;;10.70;99.90;;;;;;5072237;28;20016;-74
2022/10/02 14:24:09;;;;;;;4.85;2.65;;;10.80;99.90;;;;;;5073881;28;20017;-74
2022/10/02 14:26:39;;;;;;;4.15;2.90;;;10.80;99.90;;;;;;5057501;28;20048;-74
2022/10/02 14:29:44;;;;;;;5.45;2.95;;;10.80;99.90;;;;;;5072186;28;20119;-73